createdAt,value
2022-12-08T00:01:09.250Z,77176.13
2022-12-08T00:03:36.426Z,77179.97
2022-12-08T00:06:22.961Z,77181.91
2022-12-08T00:09:08.426Z,77187.69
2022-12-08T00:11:35.100Z,77187.69
2022-12-08T00:14:02.022Z,77191.53
2022-12-08T00:16:28.602Z,77193.47
2022-12-08T00:18:55.149Z,77193.47
2022-12-08T00:21:21.748Z,77206.97
2022-12-08T00:23:48.227Z,77208.88
2022-12-08T00:26:14.729Z,77216.59
2022-12-08T00:28:41.224Z,77220.44
2022-12-08T00:31:08.727Z,77224.31
2022-12-08T00:33:35.232Z,77230.09
2022-12-08T00:36:05.881Z,77237.78
2022-12-08T00:38:32.367Z,77233.94
2022-12-08T00:40:59.930Z,77230.09
2022-12-08T00:43:26.849Z,77230.09
2022-12-08T00:45:53.420Z,77239.72
2022-12-08T00:48:19.996Z,77241.66
2022-12-08T00:50:46.602Z,77253.22
2022-12-08T00:53:13.226Z,77253.22
2022-12-08T00:55:39.733Z,77247.44
2022-12-08T00:58:06.238Z,77249.38
2022-12-08T01:00:32.752Z,77260.94
2022-12-08T01:02:59.496Z,77255.16
2022-12-08T01:05:26.223Z,77259.00
2022-12-08T01:07:52.785Z,77255.16
2022-12-08T01:10:19.400Z,77255.16
2022-12-08T01:12:46.064Z,77249.38
2022-12-08T01:15:12.587Z,77253.22
2022-12-08T01:17:39.149Z,77249.38
2022-12-08T01:20:06.437Z,77241.66
2022-12-08T01:22:34.197Z,77245.50
2022-12-08T01:25:00.714Z,77241.66
2022-12-08T01:27:27.370Z,77239.72
2022-12-08T01:29:53.892Z,77230.09
2022-12-08T01:32:20.389Z,77233.94
2022-12-08T01:34:46.902Z,77230.09
2022-12-08T01:37:13.446Z,77222.38
2022-12-08T01:39:41.237Z,77222.38
2022-12-08T01:42:18.591Z,77214.66
2022-12-08T01:44:45.090Z,77210.81
2022-12-08T01:47:11.872Z,77212.75
2022-12-08T01:49:38.545Z,77214.66
2022-12-08T01:52:11.209Z,77210.81
2022-12-08T01:54:41.961Z,77206.97
2022-12-08T01:57:11.901Z,77203.09
2022-12-08T01:59:40.833Z,77203.09
2022-12-08T02:02:08.639Z,77195.41
2022-12-08T02:04:35.268Z,77199.25
2022-12-08T02:07:06.475Z,77199.25
2022-12-08T02:09:35.144Z,77191.53
2022-12-08T02:12:01.751Z,77183.84
2022-12-08T02:14:28.249Z,77179.97
2022-12-08T02:17:04.073Z,77176.13
2022-12-08T02:19:31.644Z,77179.97
2022-12-08T02:22:12.965Z,77179.97
2022-12-08T02:24:45.700Z,77172.28
2022-12-08T02:27:31.174Z,77166.47
2022-12-08T02:30:07.098Z,77168.41
2022-12-08T02:32:49.107Z,77164.56
2022-12-08T02:35:18.576Z,77168.41
2022-12-08T02:37:57.960Z,77183.84
2022-12-08T02:40:36.865Z,77168.41
2022-12-08T02:43:14.366Z,77176.13
2022-12-08T02:46:04.428Z,77176.13
2022-12-08T02:48:33.132Z,77176.13
2022-12-08T02:50:59.734Z,77179.97
2022-12-08T02:53:28.088Z,77172.28
2022-12-08T02:56:05.818Z,77172.28
2022-12-08T02:58:40.866Z,77168.41
2022-12-08T03:01:15.213Z,77166.47
2022-12-08T03:03:48.361Z,77164.56
2022-12-08T03:06:33.533Z,77160.69
2022-12-08T03:09:09.487Z,77164.56
2022-12-08T03:11:48.795Z,77153.00
2022-12-08T03:14:17.046Z,77153.00
2022-12-08T03:16:46.448Z,77151.06
2022-12-08T03:19:21.284Z,77145.28
2022-12-08T03:21:50.675Z,77149.13
2022-12-08T03:24:17.905Z,77149.13
2022-12-08T03:26:50.752Z,77147.22
2022-12-08T03:29:17.360Z,77145.28
2022-12-08T03:32:04.254Z,77145.28
2022-12-08T03:34:31.427Z,77145.28
2022-12-08T03:37:00.186Z,77137.56
2022-12-08T03:39:26.767Z,77141.44
2022-12-08T03:41:53.347Z,77145.28
2022-12-08T03:44:19.908Z,77141.44
2022-12-08T03:46:46.379Z,77141.44
2022-12-08T03:49:12.913Z,77143.34
2022-12-08T03:51:39.578Z,77137.56
2022-12-08T03:54:06.117Z,77137.56
2022-12-08T03:56:34.662Z,77139.50
2022-12-08T03:59:01.751Z,77141.44
2022-12-08T04:01:28.357Z,77145.28
2022-12-08T04:03:54.991Z,77137.56
2022-12-08T04:06:21.956Z,77133.72
2022-12-08T04:08:49.025Z,77131.78
2022-12-08T04:11:15.610Z,77133.72
2022-12-08T04:13:42.946Z,77122.16
2022-12-08T04:16:14.964Z,77116.38
2022-12-08T04:18:41.553Z,77114.44
2022-12-08T04:21:08.316Z,77110.59
2022-12-08T04:23:34.899Z,77102.88
2022-12-08T04:26:01.411Z,77099.03
2022-12-08T04:28:29.549Z,77099.03
2022-12-08T04:30:56.285Z,77093.25
2022-12-08T04:33:22.942Z,77093.25
2022-12-08T04:35:49.542Z,77091.31
2022-12-08T04:38:16.747Z,77091.31
2022-12-08T04:40:43.360Z,77083.59
2022-12-08T04:43:10.072Z,77073.97
2022-12-08T04:45:39.355Z,77064.34
2022-12-08T04:48:07.327Z,77064.34
2022-12-08T04:50:33.902Z,77060.47
2022-12-08T04:53:00.913Z,77056.63
2022-12-08T04:55:27.426Z,77052.78
2022-12-08T04:57:54.067Z,77050.84
2022-12-08T05:00:20.915Z,77052.78
2022-12-08T05:02:47.512Z,77050.84
2022-12-08T05:05:14.080Z,77052.78
2022-12-08T05:07:40.764Z,77052.78
2022-12-08T05:10:07.789Z,77050.84
2022-12-08T05:12:34.551Z,77048.91
2022-12-08T05:15:01.152Z,77045.06
2022-12-08T05:17:27.672Z,77047.00
2022-12-08T05:19:54.266Z,77045.06
2022-12-08T05:22:20.809Z,77052.78
2022-12-08T05:24:47.947Z,77048.91
2022-12-08T05:27:14.872Z,77052.78
2022-12-08T05:29:41.536Z,77045.06
2022-12-08T05:32:08.205Z,77048.91
2022-12-08T05:34:34.808Z,77035.44
2022-12-08T05:37:01.344Z,77033.50
2022-12-08T05:39:27.958Z,77039.28
2022-12-08T05:41:54.776Z,77037.34
2022-12-08T05:44:21.469Z,77037.34
2022-12-08T05:46:48.289Z,77041.22
2022-12-08T05:49:14.808Z,77043.13
2022-12-08T05:51:41.499Z,77037.34
2022-12-08T05:54:08.046Z,77041.22
2022-12-08T05:56:34.668Z,77037.34
2022-12-08T05:59:01.519Z,77037.34
2022-12-08T06:01:29.835Z,77037.34
2022-12-08T06:03:57.330Z,77029.66
2022-12-08T06:06:23.907Z,77029.66
2022-12-08T06:08:50.943Z,77025.78
2022-12-08T06:11:25.377Z,77025.78
2022-12-08T06:13:52.246Z,77025.78
2022-12-08T06:16:19.187Z,77018.09
2022-12-08T06:18:46.253Z,77010.38
2022-12-08T06:21:14.088Z,76998.81
2022-12-08T06:23:40.759Z,76991.09
2022-12-08T06:26:10.038Z,76994.97
2022-12-08T06:28:36.620Z,76991.09
2022-12-08T06:31:07.563Z,76991.09
2022-12-08T06:33:34.376Z,76987.25
2022-12-08T06:36:01.009Z,76985.31
2022-12-08T06:38:28.140Z,76979.53
2022-12-08T06:40:55.454Z,76983.38
2022-12-08T06:43:22.052Z,76987.25
2022-12-08T06:45:48.611Z,76989.16
2022-12-08T06:48:15.214Z,76987.25
2022-12-08T06:50:41.762Z,76987.25
2022-12-08T06:53:08.372Z,76983.38
2022-12-08T06:55:57.972Z,76987.25
2022-12-08T06:58:21.656Z,76979.53
2022-12-08T07:00:48.409Z,76981.47
2022-12-08T07:03:15.160Z,76977.59
2022-12-08T07:05:41.746Z,76987.25
2022-12-08T07:08:09.196Z,76983.38
2022-12-08T07:10:36.073Z,76983.38
2022-12-08T07:13:02.618Z,76983.38
2022-12-08T07:15:29.263Z,76979.53
2022-12-08T07:17:59.839Z,76983.38
2022-12-08T07:20:27.145Z,76981.47
2022-12-08T07:22:53.795Z,76983.38
2022-12-08T07:25:20.508Z,76983.38
2022-12-08T07:27:47.329Z,76983.38
2022-12-08T07:30:15.081Z,76987.25
2022-12-08T07:32:41.625Z,76983.38
2022-12-08T07:35:08.884Z,76994.97
2022-12-08T07:37:36.120Z,76994.97
2022-12-08T07:40:03.344Z,76991.09
2022-12-08T07:42:30.213Z,76991.09
2022-12-08T07:44:56.763Z,76994.97
2022-12-08T07:47:23.256Z,76991.09
2022-12-08T07:49:49.858Z,76987.25
2022-12-08T07:52:16.654Z,76987.25
2022-12-08T07:54:43.420Z,76994.97
2022-12-08T07:57:09.992Z,76983.38
2022-12-08T07:59:36.535Z,76983.38
2022-12-08T08:02:22.856Z,76991.09
2022-12-08T08:04:50.709Z,76952.56
2022-12-08T08:07:18.268Z,76969.91
2022-12-08T08:09:45.714Z,76977.59
2022-12-08T08:12:30.714Z,76975.69
2022-12-08T08:14:58.452Z,76979.53
2022-12-08T08:17:25.128Z,76977.59
2022-12-08T08:19:51.789Z,76979.53
2022-12-08T08:22:18.312Z,76977.59
2022-12-08T08:24:45.335Z,76971.81
2022-12-08T08:27:12.491Z,76971.81
2022-12-08T08:29:39.035Z,76964.13
2022-12-08T08:32:05.647Z,76964.13
2022-12-08T08:34:32.302Z,76964.13
2022-12-08T08:36:58.916Z,76964.13
2022-12-08T08:39:25.575Z,76956.41
2022-12-08T08:41:52.215Z,76950.63
2022-12-08T08:44:18.840Z,76948.69
2022-12-08T08:46:45.476Z,76944.84
2022-12-08T08:49:12.040Z,76941.00
2022-12-08T08:51:55.300Z,76941.00
2022-12-08T08:54:25.837Z,76917.88
2022-12-08T08:56:52.805Z,76921.72
2022-12-08T08:59:19.276Z,76914.00
2022-12-08T09:01:46.140Z,76914.00
2022-12-08T09:04:12.774Z,76894.75
2022-12-08T09:06:39.462Z,76890.88
2022-12-08T09:09:06.383Z,76890.88
2022-12-08T09:11:33.244Z,76887.03
2022-12-08T09:13:59.778Z,76879.31
2022-12-08T09:16:26.362Z,76879.31
2022-12-08T09:18:53.362Z,76875.47
2022-12-08T09:21:23.094Z,76871.63
2022-12-08T09:23:51.155Z,76869.69
2022-12-08T09:26:22.674Z,76860.06
2022-12-08T09:28:57.445Z,76852.34
2022-12-08T09:31:35.653Z,76848.47
2022-12-08T09:34:34.772Z,76840.78
2022-12-08T09:37:05.653Z,76850.41
2022-12-08T09:39:32.893Z,76848.47
2022-12-08T09:42:01.648Z,76850.41
2022-12-08T09:45:05.195Z,76844.63
2022-12-08T09:47:36.180Z,76840.78
2022-12-08T09:50:25.732Z,76831.13
2022-12-08T09:52:58.742Z,76833.06
2022-12-08T09:55:36.136Z,76823.44
2022-12-08T09:58:03.572Z,76821.50
2022-12-08T10:00:33.050Z,76813.78
2022-12-08T10:03:00.142Z,76817.66
2022-12-08T10:05:29.008Z,76813.78
2022-12-08T10:08:19.946Z,76809.94
2022-12-08T10:10:46.594Z,76792.59
2022-12-08T10:13:15.849Z,76794.53
2022-12-08T10:15:43.003Z,76794.53
2022-12-08T10:18:18.174Z,76784.88
2022-12-08T10:20:49.168Z,76786.81
2022-12-08T10:23:16.994Z,76790.66
2022-12-08T10:26:08.347Z,76790.66
2022-12-08T10:28:44.769Z,76794.53
2022-12-08T10:31:26.022Z,76792.59
2022-12-08T10:34:00.468Z,76786.81
2022-12-08T10:36:51.808Z,76775.25
2022-12-08T10:39:33.275Z,76771.41
2022-12-08T10:42:17.174Z,76765.63
2022-12-08T10:45:07.087Z,76763.69
2022-12-08T10:47:36.020Z,76757.91
2022-12-08T10:50:18.911Z,76748.28
2022-12-08T10:52:46.053Z,76736.72
2022-12-08T10:55:17.536Z,76730.94
2022-12-08T10:57:44.470Z,76721.28
2022-12-08T11:00:16.241Z,76717.44
2022-12-08T11:03:00.247Z,76715.50
2022-12-08T11:05:32.157Z,76709.72
2022-12-08T11:07:59.235Z,76719.38
2022-12-08T11:10:28.842Z,76700.09
2022-12-08T11:12:58.000Z,76707.81
2022-12-08T11:15:24.887Z,76690.47
2022-12-08T11:18:00.383Z,76680.81
2022-12-08T11:20:26.908Z,76671.19
2022-12-08T11:22:56.572Z,76671.19
2022-12-08T11:25:29.571Z,76651.91
2022-12-08T11:28:01.606Z,76644.22
2022-12-08T11:30:31.212Z,76644.22
2022-12-08T11:33:01.305Z,76636.50
2022-12-08T11:35:33.037Z,76628.78
2022-12-08T11:38:21.243Z,76628.78
2022-12-08T11:40:53.516Z,76626.88
2022-12-08T11:43:35.658Z,76634.56
2022-12-08T11:46:03.758Z,76644.22
2022-12-08T11:48:33.594Z,76651.91
2022-12-08T11:51:03.487Z,76655.78
2022-12-08T11:53:32.935Z,76659.63
2022-12-08T11:56:05.332Z,76675.03
2022-12-08T11:58:43.785Z,76673.13
2022-12-08T12:01:21.272Z,76655.78
2022-12-08T12:03:59.787Z,76684.69
2022-12-08T12:09:28.263Z,76680.81
2022-12-08T12:12:13.259Z,76686.59
2022-12-08T12:15:00.369Z,76680.81
2022-12-08T12:17:27.263Z,76686.59
2022-12-08T12:19:55.283Z,76694.31
2022-12-08T12:22:23.207Z,76690.47
2022-12-08T12:24:50.965Z,76682.75
2022-12-08T12:27:27.899Z,76690.47
2022-12-08T12:29:57.294Z,76690.47
2022-12-08T12:32:24.448Z,76694.31
2022-12-08T12:34:56.891Z,76692.38
2022-12-08T12:37:25.404Z,76688.53
2022-12-08T12:39:51.930Z,76680.81
2022-12-08T12:42:36.827Z,76680.81
2022-12-08T12:45:33.182Z,76690.47
2022-12-08T12:48:00.144Z,76682.75
2022-12-08T12:50:33.027Z,76682.75
2022-12-08T12:53:00.822Z,76688.53
2022-12-08T12:55:28.588Z,76694.31
2022-12-08T12:57:56.964Z,76690.47
2022-12-08T13:00:24.883Z,76692.38
2022-12-08T13:07:19.860Z,76694.31
2022-12-08T13:10:17.953Z,76694.31
2022-12-08T13:12:46.220Z,76694.31
2022-12-08T13:15:18.762Z,76690.47
2022-12-08T13:17:46.860Z,76690.47
2022-12-08T13:20:23.818Z,76686.59
2022-12-08T13:26:40.550Z,76690.47
2022-12-08T14:10:34.940Z,76690.47
2022-12-08T14:21:35.769Z,76698.16
2022-12-08T14:24:32.519Z,76696.25
2022-12-08T14:27:05.324Z,76696.25
2022-12-08T14:29:58.466Z,76700.09
2022-12-08T14:32:33.273Z,76702.03
2022-12-08T14:38:56.679Z,76700.09
2022-12-08T14:41:28.800Z,76698.16
2022-12-08T14:48:18.318Z,76690.47
2022-12-08T14:50:54.262Z,76698.16
2022-12-08T14:53:20.974Z,76698.16
2022-12-08T14:55:48.126Z,76705.88
2022-12-08T14:58:17.157Z,76705.88
2022-12-08T15:00:48.474Z,76700.09
2022-12-08T15:03:16.117Z,76694.31
2022-12-08T15:05:43.140Z,76698.16
2022-12-08T15:08:14.001Z,76703.94
2022-12-08T15:10:40.740Z,76705.88
2022-12-08T15:13:20.826Z,76711.66
2022-12-08T15:15:47.443Z,76711.66
2022-12-08T15:18:18.540Z,76707.81
2022-12-08T15:21:00.705Z,76715.50
2022-12-08T15:23:29.630Z,76717.44
2022-12-08T15:25:56.404Z,76721.28
2022-12-08T15:28:30.299Z,76719.38
2022-12-08T15:30:58.211Z,76721.28
2022-12-08T15:33:33.603Z,76730.94
2022-12-08T15:36:10.484Z,76727.06
2022-12-08T15:38:38.933Z,76725.16
2022-12-08T15:41:09.047Z,76732.84
2022-12-08T15:47:06.552Z,76725.16
2022-12-08T15:49:33.428Z,76698.16
2022-12-08T15:52:10.815Z,76715.50
2022-12-08T15:54:38.360Z,76721.28
2022-12-08T15:57:19.517Z,76723.22
2022-12-08T15:59:49.264Z,76725.16
2022-12-08T16:02:22.201Z,76723.22
2022-12-08T16:05:33.281Z,76723.22
2022-12-08T16:07:38.116Z,76725.16
2022-12-08T16:10:06.272Z,76732.84
2022-12-08T16:16:00.626Z,76734.78
2022-12-08T16:18:29.967Z,76740.56
2022-12-08T16:23:44.977Z,76744.41
2022-12-08T16:26:35.452Z,76748.28
2022-12-08T16:29:00.625Z,76748.28
2022-12-08T16:31:27.191Z,76746.34
2022-12-08T16:33:53.713Z,76752.13
2022-12-08T16:36:20.313Z,76754.06
2022-12-08T16:38:46.885Z,76759.84
2022-12-08T16:41:36.101Z,76755.97
2022-12-08T16:44:03.792Z,76759.84
2022-12-08T16:46:30.951Z,76763.69
2022-12-08T16:48:58.914Z,76765.63
2022-12-08T16:51:27.298Z,76763.69
2022-12-08T16:53:54.902Z,76759.84
2022-12-08T16:56:25.027Z,76763.69
2022-12-08T16:58:56.159Z,76763.69
2022-12-08T17:01:24.134Z,76757.91
2022-12-08T17:04:22.633Z,76763.69
2022-12-08T17:07:00.937Z,76763.69
2022-12-08T17:09:28.763Z,76763.69
2022-12-08T17:12:05.786Z,76769.47
2022-12-08T17:14:33.519Z,76763.69
2022-12-08T17:17:01.271Z,76765.63
2022-12-08T17:19:27.820Z,76759.84
2022-12-08T17:21:54.461Z,76763.69
2022-12-08T17:24:23.095Z,76763.69
2022-12-08T17:26:49.619Z,76767.53
2022-12-08T17:29:18.640Z,76765.63
2022-12-08T17:31:45.302Z,76759.84
2022-12-08T17:34:12.104Z,76759.84
2022-12-08T17:36:38.613Z,76765.63
2022-12-08T17:39:05.446Z,76763.69
2022-12-08T17:58:06.689Z,76759.84
2022-12-08T18:00:33.738Z,76761.75
2022-12-08T18:11:02.421Z,76763.69
2022-12-08T18:13:29.550Z,76752.13
2022-12-08T18:15:56.065Z,76755.97
2022-12-08T18:18:22.767Z,76748.28
2022-12-08T18:20:49.812Z,76750.19
2022-12-08T18:23:17.126Z,76746.34
2022-12-08T18:25:43.986Z,76750.19
2022-12-08T18:28:10.612Z,76746.34
2022-12-08T18:30:37.415Z,76740.56
2022-12-08T18:33:04.705Z,76740.56
2022-12-08T18:35:31.340Z,76748.28
2022-12-08T18:37:58.477Z,76744.41
2022-12-08T18:40:25.092Z,76748.28
2022-12-08T18:42:51.593Z,76744.41
2022-12-08T18:45:22.686Z,76744.41
2022-12-08T18:47:50.622Z,76746.34
2022-12-08T18:50:17.164Z,76748.28
2022-12-08T18:52:45.096Z,76748.28
2022-12-08T18:55:11.803Z,76715.50
2022-12-08T18:57:39.188Z,76723.22
2022-12-08T19:00:07.138Z,76744.41
2022-12-08T19:02:34.123Z,76752.13
2022-12-08T19:05:01.280Z,76752.13
2022-12-08T19:07:27.895Z,76755.97
2022-12-08T19:09:55.967Z,76759.84
2022-12-08T19:12:22.874Z,76765.63
2022-12-08T19:14:49.432Z,76763.69
2022-12-08T19:17:16.062Z,76759.84
2022-12-08T19:19:42.583Z,76763.69
2022-12-08T19:22:09.185Z,76765.63
2022-12-08T19:24:36.706Z,76767.53
2022-12-08T19:27:04.041Z,76761.75
2022-12-08T19:29:30.723Z,76759.84
2022-12-08T19:31:57.533Z,76757.91
2022-12-08T19:34:24.127Z,76759.84
2022-12-08T19:36:50.642Z,76767.53
2022-12-08T19:39:36.982Z,76771.41
2022-12-08T19:42:22.511Z,76773.31
2022-12-08T19:44:55.273Z,76767.53
2022-12-08T19:47:22.879Z,76771.41
2022-12-08T19:49:49.587Z,76777.19
2022-12-08T19:52:16.207Z,76775.25
2022-12-08T19:54:42.937Z,76779.09
2022-12-08T19:57:10.745Z,76779.09
2022-12-08T19:59:37.956Z,76781.03
2022-12-08T20:02:05.238Z,76779.09
2022-12-08T20:04:31.942Z,76779.09
2022-12-08T20:06:58.500Z,76779.09
2022-12-08T20:09:25.117Z,76775.25
2022-12-08T20:11:54.615Z,76769.47
2022-12-08T20:14:22.293Z,76773.31
2022-12-08T20:16:49.147Z,76775.25
2022-12-08T20:19:15.770Z,76779.09
2022-12-08T20:21:42.451Z,76781.03
2022-12-08T20:24:09.094Z,76775.25
2022-12-08T20:26:35.776Z,76779.09
2022-12-08T20:29:02.286Z,76777.19
2022-12-08T20:31:29.729Z,76775.25
2022-12-08T20:33:59.084Z,76779.09
2022-12-08T20:36:25.801Z,76782.97
2022-12-08T20:38:52.907Z,76779.09
2022-12-08T20:41:20.124Z,76782.97
2022-12-08T20:43:47.581Z,76782.97
2022-12-08T20:46:15.035Z,76784.88
2022-12-08T20:48:42.006Z,76782.97
2022-12-08T20:51:11.455Z,76782.97
2022-12-08T20:53:38.299Z,76777.19
2022-12-08T20:56:05.197Z,76782.97
2022-12-08T20:58:31.721Z,76775.25
2022-12-08T21:00:58.531Z,76773.31
2022-12-08T21:03:26.549Z,76771.41
2022-12-08T21:05:53.564Z,76779.09
2022-12-08T21:08:20.530Z,76779.09
2022-12-08T21:10:52.915Z,76775.25
2022-12-08T21:13:19.739Z,76771.41
2022-12-08T21:15:47.080Z,76775.25
2022-12-08T21:18:15.123Z,76771.41
2022-12-08T21:20:42.001Z,76775.25
2022-12-08T21:23:08.660Z,76771.41
2022-12-08T21:25:35.308Z,76767.53
2022-12-08T21:28:01.934Z,76771.41
2022-12-08T21:30:28.432Z,76765.63
2022-12-08T21:32:55.125Z,76771.41
2022-12-08T21:35:21.873Z,76763.69
2022-12-08T21:37:48.650Z,76761.75
2022-12-08T21:40:15.336Z,76763.69
2022-12-08T21:42:45.046Z,76767.53
2022-12-08T21:45:13.527Z,76763.69
2022-12-08T21:47:40.807Z,76767.53
2022-12-08T21:50:08.302Z,76765.63
2022-12-08T21:52:39.136Z,76755.97
2022-12-08T21:55:06.575Z,76752.13
2022-12-08T21:57:33.292Z,76748.28
2022-12-08T21:59:59.981Z,76748.28
2022-12-08T22:02:26.829Z,76748.28
2022-12-08T22:04:53.853Z,76752.13
2022-12-08T22:07:21.108Z,76752.13
2022-12-08T22:09:47.888Z,76752.13
2022-12-08T22:12:16.533Z,76755.97
2022-12-08T22:14:43.819Z,76755.97
2022-12-08T22:17:11.194Z,76755.97
2022-12-08T22:19:40.491Z,76759.84
2022-12-08T22:22:07.549Z,76759.84
2022-12-08T22:24:34.348Z,76761.75
2022-12-08T22:27:01.122Z,76761.75
2022-12-08T22:29:27.760Z,76755.97
2022-12-08T22:31:54.352Z,76767.53
2022-12-08T22:34:21.120Z,76763.69
2022-12-08T22:36:49.119Z,76759.84
2022-12-08T22:39:15.840Z,76765.63
2022-12-08T22:41:42.631Z,76767.53
2022-12-08T22:44:09.193Z,76765.63
2022-12-08T22:46:35.923Z,76755.97
2022-12-08T22:49:02.782Z,76761.75
2022-12-08T22:51:29.625Z,76759.84
2022-12-08T22:53:56.134Z,76763.69
2022-12-08T22:56:22.863Z,76755.97
2022-12-08T22:58:49.897Z,76755.97
2022-12-08T23:01:27.309Z,76748.28
2022-12-08T23:03:54.216Z,76748.28
2022-12-08T23:06:21.117Z,76748.28
2022-12-08T23:08:48.324Z,76740.56
2022-12-08T23:11:15.030Z,76744.41
2022-12-08T23:13:41.880Z,76746.34
2022-12-08T23:16:09.237Z,76748.28
2022-12-08T23:18:36.577Z,76746.34
2022-12-08T23:21:07.338Z,76746.34
2022-12-08T23:23:34.130Z,76750.19
2022-12-08T23:26:00.740Z,76744.41
2022-12-08T23:28:27.550Z,76738.63
2022-12-08T23:30:54.158Z,76740.56
2022-12-08T23:33:21.032Z,76742.50
2022-12-08T23:35:55.425Z,76732.84
2022-12-08T23:38:22.074Z,76734.78
2022-12-08T23:40:48.801Z,76736.72
2022-12-08T23:43:15.448Z,76734.78
2022-12-08T23:45:42.259Z,76740.56
2022-12-08T23:48:08.963Z,76740.56
2022-12-08T23:50:35.598Z,76752.13
2022-12-08T23:53:02.095Z,76748.28
2022-12-08T23:55:28.800Z,76752.13
2022-12-08T23:57:55.380Z,76748.28
